Time;durP1;ratioP1;P1;durP2;ratioP2;P2;SDS_P1;SDS_P2;PMS_P1;PMS_P2;Temp;Humidity;BMP_temperature;BMP_pressure;BME280_temperature;BME280_humidity;BME280_pressure;Samples;Min_cycle;Max_cycle;Signal;HPM_P1;HPM_P2
2021/05/24 00:00:04;;;;;;;;;;;;;;;12.22;67.57;101312.00;15785239;28;20046;-62
2021/05/24 00:07:39;;;;;;;1999.90;999.90;;;;;;;12.21;67.25;101310.38;15784080;28;19960;-62
2021/05/24 00:15:10;;;;;;;1999.90;999.90;;;;;;;12.15;67.49;101308.88;15803719;28;20397;-62
2021/05/24 00:22:43;;;;;;;1999.90;999.90;;;;;;;11.94;67.29;101296.69;15783209;28;20070;-61
2021/05/24 00:30:18;;;;;;;1999.90;999.90;;;;;;;11.86;67.78;101281.53;15784563;28;20051;-62
2021/05/24 00:37:50;;;;;;;1999.90;999.90;;;;;;;11.85;67.58;101274.31;15801962;28;20534;-60
2021/05/24 00:45:22;;;;;;;1999.90;999.90;;;;;;;11.66;68.33;101265.38;15811996;28;20055;-59
2021/05/24 00:52:55;;;;;;;1999.90;999.90;;;;;;;11.36;69.74;101254.00;15794117;28;20075;-61
2021/05/24 01:00:29;;;;;;;1999.90;999.90;;;;;;;11.47;69.40;101248.94;15810949;28;20040;-61
2021/05/24 01:08:02;;;;;;;1999.90;999.90;;;;;;;11.68;69.10;101244.34;15792405;28;20322;-61
2021/05/24 01:15:34;;;;;;;1999.90;999.90;;;;;;;11.67;69.20;101244.66;15793607;28;20048;-62
2021/05/24 01:23:08;;;;;;;1999.90;999.90;;;;;;;11.60;69.09;101244.34;15810096;28;20043;-62
2021/05/24 01:30:41;;;;;;;1999.90;999.90;;;;;;;11.47;69.93;101235.78;15791101;28;20127;-62
2021/05/24 01:38:14;;;;;;;1999.90;999.90;;;;;;;11.49;69.52;101229.88;15808774;28;20059;-61
2021/05/24 01:45:46;;;;;;;1999.90;999.90;;;;;;;11.33;70.28;101237.06;15812144;28;20055;-62
2021/05/24 01:53:18;;;;;;;1999.90;999.90;;;;;;;11.40;69.32;101229.03;15809384;28;20117;-62
2021/05/24 02:00:50;;;;;;;1999.90;999.90;;;;;;;11.40;69.82;101234.63;15789039;28;20102;-62
2021/05/24 02:08:23;;;;;;;1999.90;999.90;;;;;;;11.12;69.93;101236.84;15806335;28;20082;-62
2021/05/24 02:15:55;;;;;;;1999.90;999.90;;;;;;;11.05;71.18;101236.50;15788625;28;20040;-61
2021/05/24 02:23:28;;;;;;;1999.90;999.90;;;;;;;11.16;70.25;101229.47;15788135;28;20553;-61
2021/05/24 02:30:59;;;;;;;1999.90;999.90;;;;;;;10.84;71.55;101222.31;15787362;28;20123;-62
2021/05/24 02:38:31;;;;;;;1999.90;999.90;;;;;;;11.01;70.58;101224.31;15787248;28;20458;-62
2021/05/24 02:46:03;;;;;;;1999.90;999.90;;;;;;;10.89;70.53;101220.19;15786776;28;20074;-61
2021/05/24 02:53:35;;;;;;;1999.90;999.90;;;;;;;10.79;69.69;101219.66;15785997;28;20539;-61
2021/05/24 03:01:08;;;;;;;1999.90;999.90;;;;;;;10.64;70.73;101223.69;15803601;28;20075;-61
2021/05/24 03:08:41;;;;;;;1999.90;999.90;;;;;;;10.69;70.90;101209.59;15785663;28;20480;-61
2021/05/24 03:16:13;;;;;;;1999.90;999.90;;;;;;;10.71;70.06;101212.88;15803889;28;20044;-61
2021/05/24 03:23:45;;;;;;;1999.90;999.90;;;;;;;10.64;70.39;101213.34;15785154;28;20089;-61
2021/05/24 03:31:17;;;;;;;1999.90;999.90;;;;;;;10.65;70.42;101226.16;15785271;28;20573;-61
2021/05/24 03:38:50;;;;;;;1999.90;999.90;;;;;;;10.67;70.25;101228.63;15769465;28;20516;-62
2021/05/24 03:46:21;;;;;;;1999.90;999.90;;;;;;;10.81;69.46;101215.38;15804163;28;20048;-60
2021/05/24 03:53:54;;;;;;;1999.90;999.90;;;;;;;10.83;69.39;101221.47;15802111;28;20129;-62
2021/05/24 04:01:25;;;;;;;1999.90;999.90;;;;;;;10.85;69.69;101226.75;15802296;28;20040;-60
2021/05/24 04:08:59;;;;;;;1999.90;999.90;;;;;;;11.12;69.20;101211.69;15801120;28;20040;-61
2021/05/24 04:16:30;;;;;;;1999.90;999.90;;;;;;;11.29;69.46;101211.75;15808751;28;20048;-62
2021/05/24 04:24:03;;;;;;;1999.90;999.90;;;;;;;11.64;67.74;101220.16;15796039;28;20044;-61
2021/05/24 04:31:36;;;;;;;1999.90;999.90;;;;;;;11.76;67.13;101223.94;15794745;28;20465;-61
2021/05/24 04:39:08;;;;;;;1999.90;999.90;;;;;;;12.13;66.39;101222.47;15812469;28;20086;-62
2021/05/24 04:46:40;;;;;;;1999.90;999.90;;;;;;;12.36;66.05;101227.88;15812491;28;20040;-61
2021/05/24 04:54:12;;;;;;;1999.90;999.90;;;;;;;12.88;64.40;101224.91;15812232;28;20051;-62
2021/05/24 05:01:44;;;;;;;1999.90;999.90;;;;;;;13.16;63.73;101226.09;15811276;28;20097;-62
2021/05/24 05:09:16;;;;;;;1999.90;999.90;;;;;;;13.46;62.97;101235.31;15810085;28;20054;-61
2021/05/24 05:16:48;;;;;;;1999.90;999.90;;;;;;;14.00;60.97;101252.22;15809957;28;20048;-62
2021/05/24 05:24:20;;;;;;;1999.90;999.90;;;;;;;14.21;60.32;101246.59;15809334;28;20485;-62
2021/05/24 05:31:52;;;;;;;1999.90;999.90;;;;;;;15.15;57.47;101246.69;15792030;28;20051;-63
2021/05/24 05:39:24;;;;;;;1999.90;999.90;;;;;;;15.63;56.44;101258.28;15811686;28;20112;-63
2021/05/24 05:46:56;;;;;;;1999.90;999.90;;;;;;;16.12;54.44;101245.72;15792313;28;20072;-63
2021/05/24 05:54:28;;;;;;;1999.90;999.90;;;;;;;17.18;52.14;101251.78;15809621;28;20439;-63
2021/05/24 06:02:00;;;;;;;1999.90;999.90;;;;;;;17.20;51.72;101258.72;15808406;28;20044;-61
2021/05/24 06:09:32;;;;;;;1999.90;999.90;;;;;;;17.71;49.91;101252.25;15808521;28;20060;-62
2021/05/24 06:17:04;;;;;;;1999.90;999.90;;;;;;;18.46;48.53;101249.84;15789823;28;20393;-63
2021/05/24 06:24:37;;;;;;;1999.90;999.90;;;;;;;18.38;48.76;101256.53;15808042;28;20059;-63
2021/05/24 06:32:08;;;;;;;1999.90;999.90;;;;;;;18.49;47.94;101258.75;15774111;28;20044;-63
2021/05/24 06:39:40;;;;;;;1999.90;999.90;;;;;;;19.26;46.55;101258.56;15807344;28;20044;-64
2021/05/24 06:47:13;;;;;;;1999.90;999.90;;;;;;;20.20;43.91;101256.69;15806129;28;20573;-64
2021/05/24 06:54:45;;;;;;;1999.90;999.90;;;;;;;20.89;42.57;101250.59;15805128;28;20055;-64
2021/05/24 07:02:17;;;;;;;1999.90;999.90;;;;;;;21.51;41.78;101242.22;15805605;28;20131;-64
2021/05/24 07:09:50;;;;;;;1999.90;999.90;;;;;;;21.85;40.73;101245.66;15806311;28;20302;-64
2021/05/24 07:17:21;;;;;;;1999.90;999.90;;;;;;;21.53;40.77;101236.97;15788340;28;20253;-64
2021/05/24 07:24:54;;;;;;;1999.90;999.90;;;;;;;22.62;39.46;101209.44;15806535;28;20047;-64
2021/05/24 07:32:25;;;;;;;1999.90;999.90;;;;;;;23.05;37.52;101218.84;15805846;28;20040;-64
2021/05/24 07:39:58;;;;;;;1999.90;999.90;;;;;;;23.30;36.39;101204.59;15807047;28;20561;-64
2021/05/24 07:47:30;;;;;;;1999.90;999.90;;;;;;;23.01;37.03;101207.44;15788551;28;20412;-64
2021/05/24 07:55:04;;;;;;;1999.90;999.90;;;;;;;24.05;35.57;101201.56;15819365;28;20485;-64
2021/05/24 08:02:39;;;;;;;1999.90;999.90;;;;;;;24.55;34.77;101190.72;15800009;28;20059;-65
2021/05/24 08:10:13;;;;;;;1999.90;999.90;;;;;;;23.26;36.20;101187.53;15817866;28;20044;-63
2021/05/24 08:17:45;;;;;;;1999.90;999.90;;;;;;;21.52;37.99;101178.53;15818223;28;20048;-64
2021/05/24 08:25:17;;;;;;;1999.90;999.90;;;;;;;21.58;38.27;101177.78;15799873;28;20071;-63
2021/05/24 08:32:49;;;;;;;1999.90;999.90;;;;;;;22.08;36.65;101185.72;15819352;28;20472;-63
2021/05/24 08:40:22;;;;;;;1999.90;999.90;;;;;;;23.52;34.78;101154.09;15803114;28;20040;-64
2021/05/24 08:47:54;;;;;;;1999.90;999.90;;;;;;;22.38;34.19;101156.97;15817786;28;20057;-64
2021/05/24 08:55:26;;;;;;;1999.90;999.90;;;;;;;24.24;31.96;101141.19;15814727;28;20528;-64
2021/05/24 09:02:58;;;;;;;1999.90;999.90;;;;;;;22.77;33.25;101132.22;15797184;28;20159;-65
2021/05/24 09:10:33;;;;;;;1999.90;999.90;;;;;;;23.05;33.65;101122.09;15813259;28;20101;-64
2021/05/24 09:18:07;;;;;;;1999.90;999.90;;;;;;;22.11;34.19;101119.59;15795520;28;20097;-65
2021/05/24 09:25:51;;;;;;;1999.90;999.90;;;;;;;22.95;33.18;101126.56;15814735;28;20485;-64
2021/05/24 09:33:23;;;;;;;1999.90;999.90;;;;;;;21.94;34.51;101098.38;15796143;28;20455;-64
2021/05/24 09:40:57;;;;;;;1999.90;999.90;;;;;;;23.03;32.98;101094.03;15812059;28;20082;-64
2021/05/24 09:48:31;;;;;;;1999.90;999.90;;;;;;;22.43;33.38;101080.63;15809426;28;20050;-63
2021/05/24 09:56:06;;;;;;;1999.90;999.90;;;;;;;23.23;31.96;101077.28;15809393;28;20051;-63
2021/05/24 10:03:38;;;;;;;1999.90;999.90;;;;;;;23.24;30.78;101069.56;15808470;28;20039;-63
2021/05/24 10:11:10;;;;;;;1999.90;999.90;;;;;;;23.39;30.24;101056.13;15789783;28;20382;-64
2021/05/24 10:18:42;;;;;;;1999.90;999.90;;;;;;;23.31;32.00;101047.59;15807505;28;20040;-63
2021/05/24 10:26:15;;;;;;;1999.90;999.90;;;;;;;23.36;32.36;101037.00;15790976;28;20312;-65
2021/05/24 10:33:48;;;;;;;1999.90;999.90;;;;;;;23.54;31.30;101023.47;15810038;28;20048;-64
2021/05/24 10:41:20;;;;;;;1999.90;999.90;;;;;;;23.94;29.09;101002.09;15788460;28;20032;-64
2021/05/24 10:48:54;;;;;;;1999.90;999.90;;;;;;;23.47;29.19;100975.13;15808566;28;20044;-64
2021/05/24 10:56:26;;;;;;;1999.90;999.90;;;;;;;24.68;25.93;100977.84;15788585;28;20046;-64
2021/05/24 11:04:11;;;;;;;1999.90;999.90;;;;;;;24.93;25.37;100979.63;15807310;28;20484;-64
2021/05/24 11:11:51;;;;;;;1999.90;999.90;;;;;;;25.29;27.21;100962.88;15806782;28;20070;-64
2021/05/24 11:19:26;;;;;;;1999.90;999.90;;;;;;;24.12;29.75;100948.63;15805737;28;20051;-64
2021/05/24 11:27:09;;;;;;;1999.90;999.90;;;;;;;22.92;30.66;100916.81;15826000;22;20373;-63
2021/05/24 11:34:41;;;;;;;1999.90;999.90;;;;;;;25.26;28.43;100900.94;15861853;28;20036;-62
2021/05/24 11:42:21;;;;;;;1999.90;999.90;;;;;;;25.13;27.73;100906.41;15860527;28;20046;-62
2021/05/24 11:49:54;;;;;;;1999.90;999.90;;;;;;;26.91;26.94;100896.84;15862239;28;20515;-62
2021/05/24 11:57:31;;;;;;;1999.90;999.90;;;;;;;27.31;23.88;100909.91;15857993;28;20035;-63
2021/05/24 12:05:04;;;;;;;1999.90;999.90;;;;;;;27.49;25.41;100888.59;15845598;28;20046;-62
2021/05/24 12:12:37;;;;;;;;;;;;;;;27.28;26.92;100889.91;15841891;28;20039;-62
2021/05/24 12:20:11;;;;;;;1999.90;999.90;;;;;;;27.60;26.14;100867.03;15796154;28;19920;-63
2021/05/24 12:27:45;;;;;;;1999.90;999.90;;;;;;;26.95;26.05;100864.03;15779206;28;20063;-63
2021/05/24 12:35:20;;;;;;;1999.90;999.90;;;;;;;29.21;23.90;100843.34;15801119;28;20044;-63
2021/05/24 12:42:57;;;;;;;1999.90;999.90;;;;;;;28.99;21.99;100825.19;15807441;28;20365;-62
2021/05/24 12:50:29;;;;;;;1999.90;999.90;;;;;;;29.25;22.41;100815.28;15806157;28;20138;-62
2021/05/24 12:58:10;;;;;;;1999.90;999.90;;;;;;;30.07;22.98;100824.06;15806467;28;20040;-63
2021/05/24 13:06:01;;;;;;;1999.90;999.90;;;;;;;28.89;22.32;100823.44;15789698;28;20040;-63
2021/05/24 13:13:33;;;;;;;1999.90;999.90;;;;;;;26.41;24.81;100789.16;15807260;28;20063;-62
2021/05/24 13:21:24;;;;;;;1999.90;999.90;;;;;;;24.84;27.84;100788.94;15804488;28;20047;-61
2021/05/24 13:29:05;;;;;;;1999.90;999.90;;;;;;;25.30;27.48;100753.97;15805697;28;20056;-62
2021/05/24 13:36:38;;;;;;;1999.90;999.90;;;;;;;24.30;27.54;100733.81;15805795;28;20040;-63
2021/05/24 13:44:12;;;;;;;1999.90;999.90;;;;;;;24.16;27.09;100718.50;15803877;28;20420;-63
2021/05/24 13:51:46;;;;;;;1999.90;999.90;;;;;;;24.10;25.52;100725.09;15803320;28;20076;-63
2021/05/24 13:59:19;;;;;;;1999.90;999.90;;;;;;;24.76;26.21;100694.06;15804106;28;20044;-62
2021/05/24 14:06:51;;;;;;;1999.90;999.90;;;;;;;24.16;28.98;100684.28;15802602;28;20043;-63
2021/05/24 14:14:23;;;;;;;1999.90;999.90;;;;;;;24.61;26.61;100664.16;15803251;28;20036;-62
2021/05/24 14:21:55;;;;;;;1999.90;999.90;;;;;;;24.57;28.01;100662.56;15801307;28;20050;-62
2021/05/24 14:29:28;;;;;;;1999.90;999.90;;;;;;;24.18;28.81;100652.53;15801642;28;20500;-62
2021/05/24 14:37:00;;;;;;;;;;;;;;;24.90;28.34;100641.66;15800772;28;20040;-63
2021/05/24 14:44:32;;;;;;;1999.90;999.90;;;;;;;24.37;28.43;100626.19;15800998;28;19926;-62
2021/05/24 14:52:12;;;;;;;1999.90;999.90;;;;;;;24.12;27.82;100622.88;15799430;28;20315;-63
2021/05/24 14:59:45;;;;;;;1999.90;999.90;;;;;;;24.14;27.01;100620.38;15799158;28;20044;-62
2021/05/24 15:07:16;;;;;;;1999.90;999.90;;;;;;;24.00;27.97;100615.69;15801313;28;20059;-62
2021/05/24 15:14:49;;;;;;;1999.90;999.90;;;;;;;24.01;27.87;100605.09;15802309;28;20488;-61
2021/05/24 15:22:23;;;;;;;1999.90;999.90;;;;;;;23.95;28.94;100587.66;15800597;28;20048;-60
2021/05/24 15:29:56;;;;;;;1999.90;999.90;;;;;;;23.61;29.89;100579.16;15802037;28;20059;-61
2021/05/24 15:37:28;;;;;;;1999.90;999.90;;;;;;;23.21;28.97;100572.28;15800845;28;20098;-61
2021/05/24 15:45:01;;;;;;;1999.90;999.90;;;;;;;23.01;30.81;100570.03;15800228;28;20047;-61
2021/05/24 15:52:33;;;;;;;1999.90;999.90;;;;;;;22.65;30.49;100569.53;15797898;28;20089;-62
2021/05/24 16:00:09;;;;;;;1999.90;999.90;;;;;;;23.02;30.72;100568.78;15797813;28;20492;-60
2021/05/24 16:07:42;;;;;;;1999.90;999.90;;;;;;;23.26;30.84;100558.41;15797358;28;20040;-62
2021/05/24 16:15:15;;;;;;;1999.90;999.90;;;;;;;23.02;30.94;100551.72;15807999;28;20040;-63
2021/05/24 16:22:51;;;;;;;1999.90;999.90;;;;;;;23.18;32.08;100539.78;15807927;28;20056;-61
2021/05/24 16:30:27;;;;;;;1999.90;999.90;;;;;;;23.38;33.37;100539.16;15808928;28;20463;-61
2021/05/24 16:37:59;;;;;;;1999.90;999.90;;;;;;;23.10;32.20;100534.59;15789827;28;20101;-61
2021/05/24 16:45:32;;;;;;;1999.90;999.90;;;;;;;23.13;30.37;100526.00;15807560;28;20126;-62
2021/05/24 16:53:04;;;;;;;1999.90;999.90;;;;;;;23.09;30.99;100507.38;15811342;28;20441;-62
2021/05/24 17:00:39;;;;;;;1999.90;999.90;;;;;;;22.93;31.49;100505.91;15863825;28;20051;-62
2021/05/24 17:08:11;;;;;;;1999.90;999.90;;;;;;;22.75;31.33;100491.84;15854142;28;20236;-57
2021/05/24 17:15:44;;;;;;;1999.90;999.90;;;;;;;22.88;32.20;100494.97;15861264;28;20400;-60
2021/05/24 17:23:15;;;;;;;1999.90;999.90;;;;;;;22.77;32.43;100497.91;15870160;28;20549;-60
2021/05/24 17:30:48;;;;;;;1999.90;999.90;;;;;;;22.77;32.46;100500.75;15848225;22;20079;-62
2021/05/24 17:38:20;;;;;;;1999.90;999.90;;;;;;;22.39;32.76;100508.41;15810081;28;20040;-63
2021/05/24 17:45:53;;;;;;;1999.90;999.90;;;;;;;22.20;34.37;100509.00;15772783;28;20044;-62
2021/05/24 17:53:25;;;;;;;1999.90;999.90;;;;;;;21.85;37.32;100498.63;15790339;28;20044;-62
2021/05/24 18:00:58;;;;;;;1999.90;999.90;;;;;;;21.77;38.37;100503.53;15809324;28;20051;-62
2021/05/24 18:08:29;;;;;;;1999.90;999.90;;;;;;;21.72;39.36;100494.66;15791016;28;20036;-61
2021/05/24 18:16:03;;;;;;;1999.90;999.90;;;;;;;21.49;40.32;100495.19;15790377;28;20047;-62
2021/05/24 18:23:35;;;;;;;1999.90;999.90;;;;;;;21.26;41.13;100507.06;15807785;28;20131;-61
2021/05/24 18:31:08;;;;;;;1999.90;999.90;;;;;;;21.15;41.31;100506.22;15788559;28;20051;-61
2021/05/24 18:38:40;;;;;;;1999.90;999.90;;;;;;;20.81;42.17;100503.09;15787223;28;20028;-62
2021/05/24 18:46:13;;;;;;;1999.90;999.90;;;;;;;20.83;42.33;100506.31;15787125;28;20036;-62
2021/05/24 18:53:47;;;;;;;1999.90;999.90;;;;;;;20.89;42.03;100501.84;15805083;28;20125;-62
2021/05/24 19:01:20;;;;;;;1999.90;999.90;;;;;;;20.61;42.31;100503.50;15785948;28;20124;-61
2021/05/24 19:08:55;;;;;;;1999.90;999.90;;;;;;;20.46;43.24;100491.41;15803450;28;20048;-61
2021/05/24 19:16:27;;;;;;;1999.90;999.90;;;;;;;20.23;43.85;100496.63;15803863;28;20036;-61
2021/05/24 19:23:59;;;;;;;1999.90;999.90;;;;;;;20.22;44.07;100491.34;15803634;28;20051;-59
2021/05/24 19:31:32;;;;;;;1999.90;999.90;;;;;;;19.86;45.72;100494.97;15802994;28;20443;-62
2021/05/24 19:39:06;;;;;;;1999.90;999.90;;;;;;;19.79;45.80;100485.63;15802403;28;20063;-61
2021/05/24 19:46:39;;;;;;;1999.90;999.90;;;;;;;19.51;46.77;100478.69;15766844;28;20143;-59
2021/05/24 20:26:05;;;;;;;1999.90;999.90;;;;;;;19.20;48.90;100462.41;15804816;28;20512;-63
2021/05/24 20:33:38;;;;;;;1999.90;999.90;;;;;;;19.33;48.46;100443.84;15801025;28;20116;-63
2021/05/24 20:41:09;;;;;;;1999.90;999.90;;;;;;;19.37;48.56;100433.34;15800643;28;20044;-63
2021/05/24 20:48:42;;;;;;;1999.90;999.90;;;;;;;19.34;49.15;100428.50;15782406;28;20534;-62
2021/05/24 20:56:13;;;;;;;1999.90;999.90;;;;;;;19.25;49.16;100422.41;15806332;28;20052;-62
2021/05/24 21:03:47;;;;;;;1999.90;999.90;;;;;;;18.89;50.48;100413.81;15811050;28;20077;-61
2021/05/24 21:11:19;;;;;;;1999.90;999.90;;;;;;;18.72;51.44;100415.31;15811497;28;20052;-62
2021/05/24 21:18:52;;;;;;;1999.90;999.90;;;;;;;18.66;51.92;100408.44;15810999;28;20036;-62
2021/05/24 21:26:23;;;;;;;1999.90;999.90;;;;;;;18.42;52.18;100406.22;15791907;28;20630;-62
2021/05/24 21:41:42;;;;;;;1999.90;999.90;;;;;;;19.04;50.88;100412.63;15769808;28;20416;-62
2021/05/24 21:49:14;;;;;;;1999.90;999.90;;;;;;;19.21;50.76;100401.81;15791329;28;20090;-61
2021/05/24 21:56:46;;;;;;;1999.90;999.90;;;;;;;19.12;51.09;100398.53;15809373;28;20496;-61
2021/05/24 22:04:18;;;;;;;1999.90;999.90;;;;;;;19.06;51.35;100400.13;15808469;28;20043;-61
2021/05/24 22:11:50;;;;;;;1999.90;999.90;;;;;;;19.20;51.23;100405.84;15789442;28;20075;-61
2021/05/24 22:19:23;;;;;;;1999.90;999.90;;;;;;;19.11;51.41;100405.41;15808060;28;20520;-61
2021/05/24 22:26:55;;;;;;;1999.90;999.90;;;;;;;19.07;51.90;100404.56;15806608;28;20082;-62
2021/05/24 22:34:27;;;;;;;1999.90;999.90;;;;;;;19.01;51.91;100396.47;15788510;28;20044;-62
2021/05/24 22:41:59;;;;;;;1999.90;999.90;;;;;;;19.11;51.47;100385.59;15805715;28;20122;-60
2021/05/24 22:49:31;;;;;;;1999.90;999.90;;;;;;;19.20;51.52;100412.31;15805200;28;20143;-60
2021/05/24 22:57:02;;;;;;;1999.90;999.90;;;;;;;19.23;51.66;100413.53;15804745;28;20440;-63
2021/05/24 23:04:42;;;;;;;1999.90;999.90;;;;;;;18.94;52.26;100415.44;15803519;28;20048;-63
2021/05/24 23:12:13;;;;;;;1999.90;999.90;;;;;;;18.97;51.94;100421.13;15786198;28;20063;-62
2021/05/24 23:19:46;;;;;;;1999.90;999.90;;;;;;;18.92;51.47;100421.47;15783587;28;20050;-62
2021/05/24 23:27:17;;;;;;;1999.90;999.90;;;;;;;18.95;49.55;100429.16;15805240;28;20071;-62
2021/05/24 23:34:50;;;;;;;1999.90;999.90;;;;;;;18.99;49.15;100444.13;15805397;28;20044;-64
2021/05/24 23:42:21;;;;;;;1999.90;999.90;;;;;;;19.09;49.16;100459.53;15804927;28;20048;-61
2021/05/24 23:49:53;;;;;;;1999.90;999.90;;;;;;;18.69;49.73;100481.13;15805310;28;20052;-61
2021/05/24 23:57:25;;;;;;;1999.90;999.90;;;;;;;18.23;50.42;100489.22;15803135;28;20044;-60
